sensor_id;sensor_type;location;lat;lon;timestamp;temperature;humidity
18047;DHT22;9148;51.454;13.862;2022-08-01T00:01:52;23.10;59.40
18047;DHT22;9148;51.454;13.862;2022-08-01T00:04:18;23.10;59.60
18047;DHT22;9148;51.454;13.862;2022-08-01T00:06:43;23.10;59.90
18047;DHT22;9148;51.454;13.862;2022-08-01T00:09:09;23.00;60.10
18047;DHT22;9148;51.454;13.862;2022-08-01T00:11:35;22.90;60.30
18047;DHT22;9148;51.454;13.862;2022-08-01T00:14:01;22.80;60.50
18047;DHT22;9148;51.454;13.862;2022-08-01T00:16:26;22.80;60.80
18047;DHT22;9148;51.454;13.862;2022-08-01T00:18:52;22.70;61.20
18047;DHT22;9148;51.454;13.862;2022-08-01T00:21:18;22.60;61.40
18047;DHT22;9148;51.454;13.862;2022-08-01T00:23:44;22.50;61.80
18047;DHT22;9148;51.454;13.862;2022-08-01T00:26:13;22.50;62.10
18047;DHT22;9148;51.454;13.862;2022-08-01T00:28:39;22.40;62.50
18047;DHT22;9148;51.454;13.862;2022-08-01T00:31:05;22.30;63.00
18047;DHT22;9148;51.454;13.862;2022-08-01T00:33:31;22.20;63.30
18047;DHT22;9148;51.454;13.862;2022-08-01T00:35:57;22.20;63.80
18047;DHT22;9148;51.454;13.862;2022-08-01T00:38:22;22.10;64.00
18047;DHT22;9148;51.454;13.862;2022-08-01T00:40:48;22.00;64.20
18047;DHT22;9148;51.454;13.862;2022-08-01T00:43:14;22.00;64.40
18047;DHT22;9148;51.454;13.862;2022-08-01T00:45:40;21.90;64.60
18047;DHT22;9148;51.454;13.862;2022-08-01T00:48:06;21.90;64.90
18047;DHT22;9148;51.454;13.862;2022-08-01T00:50:32;21.80;65.20
18047;DHT22;9148;51.454;13.862;2022-08-01T00:52:58;21.70;65.20
18047;DHT22;9148;51.454;13.862;2022-08-01T00:55:26;21.70;65.60
18047;DHT22;9148;51.454;13.862;2022-08-01T00:57:52;21.60;66.00
18047;DHT22;9148;51.454;13.862;2022-08-01T01:00:18;21.50;66.30
18047;DHT22;9148;51.454;13.862;2022-08-01T01:02:44;21.50;66.50
18047;DHT22;9148;51.454;13.862;2022-08-01T01:05:10;21.40;66.80
18047;DHT22;9148;51.454;13.862;2022-08-01T01:10:25;21.30;67.80
18047;DHT22;9148;51.454;13.862;2022-08-01T01:13:09;21.20;68.80
18047;DHT22;9148;51.454;13.862;2022-08-01T01:15:51;21.10;68.50
18047;DHT22;9148;51.454;13.862;2022-08-01T01:18:47;21.10;69.10
18047;DHT22;9148;51.454;13.862;2022-08-01T01:26:51;21.00;70.40
18047;DHT22;9148;51.454;13.862;2022-08-01T01:29:34;20.90;70.90
18047;DHT22;9148;51.454;13.862;2022-08-01T01:34:44;20.90;71.60
18047;DHT22;9148;51.454;13.862;2022-08-01T01:37:17;20.80;71.80
18047;DHT22;9148;51.454;13.862;2022-08-01T01:39:44;20.80;72.30
18047;DHT22;9148;51.454;13.862;2022-08-01T01:42:12;20.80;72.50
18047;DHT22;9148;51.454;13.862;2022-08-01T01:44:39;20.80;72.90
18047;DHT22;9148;51.454;13.862;2022-08-01T01:47:06;20.90;73.20
18047;DHT22;9148;51.454;13.862;2022-08-01T01:49:32;20.90;73.50
18047;DHT22;9148;51.454;13.862;2022-08-01T01:52:00;20.90;73.90
18047;DHT22;9148;51.454;13.862;2022-08-01T01:54:37;21.00;74.30
18047;DHT22;9148;51.454;13.862;2022-08-01T01:57:05;21.00;74.60
18047;DHT22;9148;51.454;13.862;2022-08-01T01:59:34;21.00;75.00
18047;DHT22;9148;51.454;13.862;2022-08-01T02:02:03;20.90;75.10
18047;DHT22;9148;51.454;13.862;2022-08-01T02:04:30;21.00;75.60
18047;DHT22;9148;51.454;13.862;2022-08-01T02:06:59;21.00;76.00
18047;DHT22;9148;51.454;13.862;2022-08-01T02:09:27;21.00;76.10
18047;DHT22;9148;51.454;13.862;2022-08-01T02:11:55;21.10;76.50
18047;DHT22;9148;51.454;13.862;2022-08-01T02:14:22;20.80;76.60
18047;DHT22;9148;51.454;13.862;2022-08-01T02:16:49;21.00;76.80
18047;DHT22;9148;51.454;13.862;2022-08-01T02:19:18;21.00;77.00
18047;DHT22;9148;51.454;13.862;2022-08-01T02:21:51;21.00;77.20
18047;DHT22;9148;51.454;13.862;2022-08-01T02:24:42;21.00;77.30
18047;DHT22;9148;51.454;13.862;2022-08-01T02:27:14;21.00;77.50
18047;DHT22;9148;51.454;13.862;2022-08-01T02:29:52;21.00;77.60
18047;DHT22;9148;51.454;13.862;2022-08-01T02:32:26;21.10;77.80
18047;DHT22;9148;51.454;13.862;2022-08-01T02:34:57;21.00;78.10
18047;DHT22;9148;51.454;13.862;2022-08-01T02:37:29;21.10;78.40
18047;DHT22;9148;51.454;13.862;2022-08-01T02:39:56;21.00;78.60
18047;DHT22;9148;51.454;13.862;2022-08-01T02:42:25;21.10;79.00
18047;DHT22;9148;51.454;13.862;2022-08-01T02:44:53;21.00;79.60
18047;DHT22;9148;51.454;13.862;2022-08-01T02:47:20;21.00;79.70
18047;DHT22;9148;51.454;13.862;2022-08-01T02:49:49;21.00;80.20
18047;DHT22;9148;51.454;13.862;2022-08-01T02:52:18;21.00;80.30
18047;DHT22;9148;51.454;13.862;2022-08-01T02:54:47;21.00;80.70
18047;DHT22;9148;51.454;13.862;2022-08-01T02:57:14;20.90;80.90
18047;DHT22;9148;51.454;13.862;2022-08-01T02:59:42;20.90;81.20
18047;DHT22;9148;51.454;13.862;2022-08-01T03:02:10;21.10;81.40
18047;DHT22;9148;51.454;13.862;2022-08-01T03:04:38;20.90;81.60
18047;DHT22;9148;51.454;13.862;2022-08-01T03:07:06;20.90;81.80
18047;DHT22;9148;51.454;13.862;2022-08-01T03:09:36;20.90;82.00
18047;DHT22;9148;51.454;13.862;2022-08-01T03:12:06;20.90;82.30
18047;DHT22;9148;51.454;13.862;2022-08-01T03:14:42;20.90;82.50
18047;DHT22;9148;51.454;13.862;2022-08-01T03:17:10;20.90;82.70
18047;DHT22;9148;51.454;13.862;2022-08-01T03:19:38;20.90;82.90
18047;DHT22;9148;51.454;13.862;2022-08-01T03:22:06;20.80;83.20
18047;DHT22;9148;51.454;13.862;2022-08-01T03:24:36;20.80;83.40
18047;DHT22;9148;51.454;13.862;2022-08-01T03:27:04;20.80;83.70
18047;DHT22;9148;51.454;13.862;2022-08-01T03:29:32;20.80;84.00
18047;DHT22;9148;51.454;13.862;2022-08-01T03:31:59;20.80;84.30
18047;DHT22;9148;51.454;13.862;2022-08-01T03:34:26;20.80;84.70
18047;DHT22;9148;51.454;13.862;2022-08-01T03:39:34;20.70;85.10
18047;DHT22;9148;51.454;13.862;2022-08-01T03:42:09;20.70;85.60
18047;DHT22;9148;51.454;13.862;2022-08-01T03:44:41;20.70;86.10
18047;DHT22;9148;51.454;13.862;2022-08-01T03:47:08;20.70;86.30
18047;DHT22;9148;51.454;13.862;2022-08-01T03:49:40;20.70;86.60
18047;DHT22;9148;51.454;13.862;2022-08-01T03:52:09;20.70;86.90
18047;DHT22;9148;51.454;13.862;2022-08-01T03:54:37;20.70;87.10
18047;DHT22;9148;51.454;13.862;2022-08-01T03:57:04;20.70;87.40
18047;DHT22;9148;51.454;13.862;2022-08-01T03:59:31;20.70;87.50
18047;DHT22;9148;51.454;13.862;2022-08-01T04:01:58;20.70;87.80
18047;DHT22;9148;51.454;13.862;2022-08-01T04:04:24;20.70;88.10
18047;DHT22;9148;51.454;13.862;2022-08-01T04:06:50;20.70;88.80
18047;DHT22;9148;51.454;13.862;2022-08-01T04:09:19;20.80;88.90
18047;DHT22;9148;51.454;13.862;2022-08-01T04:11:46;20.80;89.00
18047;DHT22;9148;51.454;13.862;2022-08-01T04:14:12;20.80;89.10
18047;DHT22;9148;51.454;13.862;2022-08-01T04:16:38;20.80;89.30
18047;DHT22;9148;51.454;13.862;2022-08-01T04:19:04;20.80;89.50
18047;DHT22;9148;51.454;13.862;2022-08-01T04:21:34;20.80;89.90
18047;DHT22;9148;51.454;13.862;2022-08-01T04:24:13;20.80;90.00
18047;DHT22;9148;51.454;13.862;2022-08-01T04:26:42;20.80;90.00
18047;DHT22;9148;51.454;13.862;2022-08-01T04:29:09;20.80;90.20
18047;DHT22;9148;51.454;13.862;2022-08-01T04:31:37;20.90;90.40
18047;DHT22;9148;51.454;13.862;2022-08-01T04:34:05;20.90;90.40
18047;DHT22;9148;51.454;13.862;2022-08-01T04:36:35;20.90;90.50
18047;DHT22;9148;51.454;13.862;2022-08-01T04:39:02;20.90;90.50
18047;DHT22;9148;51.454;13.862;2022-08-01T04:41:30;21.00;90.60
18047;DHT22;9148;51.454;13.862;2022-08-01T04:43:57;21.00;90.50
18047;DHT22;9148;51.454;13.862;2022-08-01T04:46:28;21.00;90.60
18047;DHT22;9148;51.454;13.862;2022-08-01T04:48:54;21.10;90.70
18047;DHT22;9148;51.454;13.862;2022-08-01T04:51:20;21.10;90.70
18047;DHT22;9148;51.454;13.862;2022-08-01T04:53:48;21.20;90.80
18047;DHT22;9148;51.454;13.862;2022-08-01T04:56:14;21.20;90.80
18047;DHT22;9148;51.454;13.862;2022-08-01T04:58:41;21.20;91.00
18047;DHT22;9148;51.454;13.862;2022-08-01T05:01:08;21.20;91.10
18047;DHT22;9148;51.454;13.862;2022-08-01T05:03:34;21.20;91.10
18047;DHT22;9148;51.454;13.862;2022-08-01T05:06:00;21.20;91.20
18047;DHT22;9148;51.454;13.862;2022-08-01T05:08:25;21.20;91.40
18047;DHT22;9148;51.454;13.862;2022-08-01T05:10:51;21.00;91.80
18047;DHT22;9148;51.454;13.862;2022-08-01T05:13:18;21.10;92.10
18047;DHT22;9148;51.454;13.862;2022-08-01T05:15:44;21.10;92.20
18047;DHT22;9148;51.454;13.862;2022-08-01T05:18:10;21.10;92.20
18047;DHT22;9148;51.454;13.862;2022-08-01T05:20:36;21.10;92.30
18047;DHT22;9148;51.454;13.862;2022-08-01T05:23:03;21.10;92.30
18047;DHT22;9148;51.454;13.862;2022-08-01T05:25:31;21.10;92.30
18047;DHT22;9148;51.454;13.862;2022-08-01T05:27:57;21.20;92.30
18047;DHT22;9148;51.454;13.862;2022-08-01T05:30:23;21.20;92.40
18047;DHT22;9148;51.454;13.862;2022-08-01T05:32:48;21.30;92.50
18047;DHT22;9148;51.454;13.862;2022-08-01T05:35:14;21.40;92.50
18047;DHT22;9148;51.454;13.862;2022-08-01T05:37:40;21.40;92.60
18047;DHT22;9148;51.454;13.862;2022-08-01T05:40:06;21.50;92.60
18047;DHT22;9148;51.454;13.862;2022-08-01T05:42:32;21.60;92.70
18047;DHT22;9148;51.454;13.862;2022-08-01T05:44:57;21.60;92.80
18047;DHT22;9148;51.454;13.862;2022-08-01T05:47:23;21.60;92.90
18047;DHT22;9148;51.454;13.862;2022-08-01T05:49:49;21.70;93.00
18047;DHT22;9148;51.454;13.862;2022-08-01T05:52:15;21.80;93.00
18047;DHT22;9148;51.454;13.862;2022-08-01T05:54:41;21.90;93.00
18047;DHT22;9148;51.454;13.862;2022-08-01T05:57:07;21.90;93.30
18047;DHT22;9148;51.454;13.862;2022-08-01T05:59:32;22.00;93.10
18047;DHT22;9148;51.454;13.862;2022-08-01T06:01:58;22.00;93.10
18047;DHT22;9148;51.454;13.862;2022-08-01T06:04:25;22.10;93.10
18047;DHT22;9148;51.454;13.862;2022-08-01T06:06:50;22.30;93.20
18047;DHT22;9148;51.454;13.862;2022-08-01T06:09:16;22.30;93.30
18047;DHT22;9148;51.454;13.862;2022-08-01T06:11:42;22.40;93.40
18047;DHT22;9148;51.454;13.862;2022-08-01T06:14:08;22.40;93.90
18047;DHT22;9148;51.454;13.862;2022-08-01T06:16:33;22.40;93.80
18047;DHT22;9148;51.454;13.862;2022-08-01T06:19:00;22.50;93.60
18047;DHT22;9148;51.454;13.862;2022-08-01T06:21:26;22.50;93.60
18047;DHT22;9148;51.454;13.862;2022-08-01T06:23:51;22.60;93.80
18047;DHT22;9148;51.454;13.862;2022-08-01T06:26:18;22.60;93.90
18047;DHT22;9148;51.454;13.862;2022-08-01T06:28:44;22.70;94.10
18047;DHT22;9148;51.454;13.862;2022-08-01T06:31:09;22.70;94.80
18047;DHT22;9148;51.454;13.862;2022-08-01T06:33:37;22.60;96.30
18047;DHT22;9148;51.454;13.862;2022-08-01T06:36:03;22.40;96.80
18047;DHT22;9148;51.454;13.862;2022-08-01T06:38:29;22.00;97.40
18047;DHT22;9148;51.454;13.862;2022-08-01T06:40:55;22.00;98.20
18047;DHT22;9148;51.454;13.862;2022-08-01T06:43:20;21.90;98.90
18047;DHT22;9148;51.454;13.862;2022-08-01T06:45:46;21.90;99.60
18047;DHT22;9148;51.454;13.862;2022-08-01T06:48:12;21.90;99.90
18047;DHT22;9148;51.454;13.862;2022-08-01T06:50:38;21.90;99.90
18047;DHT22;9148;51.454;13.862;2022-08-01T06:53:04;21.90;99.90
18047;DHT22;9148;51.454;13.862;2022-08-01T06:55:30;22.10;99.90
18047;DHT22;9148;51.454;13.862;2022-08-01T06:57:56;22.20;99.90
18047;DHT22;9148;51.454;13.862;2022-08-01T07:00:23;22.40;99.90
18047;DHT22;9148;51.454;13.862;2022-08-01T07:02:55;22.60;99.90
18047;DHT22;9148;51.454;13.862;2022-08-01T07:05:22;22.90;99.90
18047;DHT22;9148;51.454;13.862;2022-08-01T07:07:48;23.20;99.70
18047;DHT22;9148;51.454;13.862;2022-08-01T07:10:14;23.40;98.70
18047;DHT22;9148;51.454;13.862;2022-08-01T07:12:40;23.60;97.60
18047;DHT22;9148;51.454;13.862;2022-08-01T07:15:07;23.60;97.00
18047;DHT22;9148;51.454;13.862;2022-08-01T07:17:38;23.70;96.80
18047;DHT22;9148;51.454;13.862;2022-08-01T07:20:08;23.90;96.80
18047;DHT22;9148;51.454;13.862;2022-08-01T07:22:35;24.20;96.00
18047;DHT22;9148;51.454;13.862;2022-08-01T07:25:03;24.40;95.00
18047;DHT22;9148;51.454;13.862;2022-08-01T07:27:30;24.50;94.30
18047;DHT22;9148;51.454;13.862;2022-08-01T07:29:55;24.60;93.90
18047;DHT22;9148;51.454;13.862;2022-08-01T07:32:21;24.80;93.50
18047;DHT22;9148;51.454;13.862;2022-08-01T07:34:47;25.00;92.60
18047;DHT22;9148;51.454;13.862;2022-08-01T07:37:12;25.10;92.20
18047;DHT22;9148;51.454;13.862;2022-08-01T07:39:38;25.20;91.80
18047;DHT22;9148;51.454;13.862;2022-08-01T07:42:04;25.40;91.20
18047;DHT22;9148;51.454;13.862;2022-08-01T07:44:29;25.60;90.70
18047;DHT22;9148;51.454;13.862;2022-08-01T07:46:55;25.60;90.30
18047;DHT22;9148;51.454;13.862;2022-08-01T07:49:21;25.70;90.10
18047;DHT22;9148;51.454;13.862;2022-08-01T07:51:47;25.70;89.60
18047;DHT22;9148;51.454;13.862;2022-08-01T07:54:13;25.70;89.00
18047;DHT22;9148;51.454;13.862;2022-08-01T07:56:38;25.60;89.00
18047;DHT22;9148;51.454;13.862;2022-08-01T07:59:04;25.40;89.40
18047;DHT22;9148;51.454;13.862;2022-08-01T08:01:30;25.20;90.10
18047;DHT22;9148;51.454;13.862;2022-08-01T08:03:56;25.10;90.90
18047;DHT22;9148;51.454;13.862;2022-08-01T08:06:21;25.00;91.00
18047;DHT22;9148;51.454;13.862;2022-08-01T08:08:47;25.00;91.20
18047;DHT22;9148;51.454;13.862;2022-08-01T08:11:13;25.10;91.20
18047;DHT22;9148;51.454;13.862;2022-08-01T08:13:38;25.30;90.80
18047;DHT22;9148;51.454;13.862;2022-08-01T08:16:04;25.60;90.30
18047;DHT22;9148;51.454;13.862;2022-08-01T08:18:30;25.50;89.30
18047;DHT22;9148;51.454;13.862;2022-08-01T08:20:55;26.00;88.50
18047;DHT22;9148;51.454;13.862;2022-08-01T08:23:21;26.00;87.50
18047;DHT22;9148;51.454;13.862;2022-08-01T08:26:05;25.90;86.80
18047;DHT22;9148;51.454;13.862;2022-08-01T08:28:31;25.80;86.50
18047;DHT22;9148;51.454;13.862;2022-08-01T08:30:57;25.70;86.30
18047;DHT22;9148;51.454;13.862;2022-08-01T08:33:23;25.60;86.50
18047;DHT22;9148;51.454;13.862;2022-08-01T08:35:48;25.70;86.70
18047;DHT22;9148;51.454;13.862;2022-08-01T08:38:14;25.70;85.90
18047;DHT22;9148;51.454;13.862;2022-08-01T08:40:40;25.60;85.90
18047;DHT22;9148;51.454;13.862;2022-08-01T08:43:06;25.60;86.20
18047;DHT22;9148;51.454;13.862;2022-08-01T08:45:33;25.60;86.60
18047;DHT22;9148;51.454;13.862;2022-08-01T08:47:59;25.60;86.60
18047;DHT22;9148;51.454;13.862;2022-08-01T08:50:26;25.50;86.10
18047;DHT22;9148;51.454;13.862;2022-08-01T08:52:53;25.40;86.30
18047;DHT22;9148;51.454;13.862;2022-08-01T08:55:20;25.40;86.60
18047;DHT22;9148;51.454;13.862;2022-08-01T08:57:46;25.30;86.40
18047;DHT22;9148;51.454;13.862;2022-08-01T09:00:13;25.20;86.90
18047;DHT22;9148;51.454;13.862;2022-08-01T09:02:44;25.00;88.00
18047;DHT22;9148;51.454;13.862;2022-08-01T09:05:12;24.90;87.60
18047;DHT22;9148;51.454;13.862;2022-08-01T09:07:38;24.80;88.00
18047;DHT22;9148;51.454;13.862;2022-08-01T09:10:04;24.90;88.20
18047;DHT22;9148;51.454;13.862;2022-08-01T09:12:31;25.00;88.30
18047;DHT22;9148;51.454;13.862;2022-08-01T09:14:57;25.10;88.10
18047;DHT22;9148;51.454;13.862;2022-08-01T09:17:22;25.20;87.70
18047;DHT22;9148;51.454;13.862;2022-08-01T09:19:54;25.30;87.50
18047;DHT22;9148;51.454;13.862;2022-08-01T09:22:22;25.40;87.20
18047;DHT22;9148;51.454;13.862;2022-08-01T09:25:05;25.50;86.60
18047;DHT22;9148;51.454;13.862;2022-08-01T09:27:33;25.50;86.30
18047;DHT22;9148;51.454;13.862;2022-08-01T09:30:18;25.60;85.70
18047;DHT22;9148;51.454;13.862;2022-08-01T09:32:59;25.70;85.10
18047;DHT22;9148;51.454;13.862;2022-08-01T09:35:28;25.80;84.70
18047;DHT22;9148;51.454;13.862;2022-08-01T09:38:16;25.80;83.00
18047;DHT22;9148;51.454;13.862;2022-08-01T09:40:48;26.00;82.20
18047;DHT22;9148;51.454;13.862;2022-08-01T09:43:15;26.10;81.00
18047;DHT22;9148;51.454;13.862;2022-08-01T09:45:41;26.20;80.00
18047;DHT22;9148;51.454;13.862;2022-08-01T09:48:08;26.20;79.70
18047;DHT22;9148;51.454;13.862;2022-08-01T09:50:45;26.20;80.00
18047;DHT22;9148;51.454;13.862;2022-08-01T09:53:12;26.20;80.00
18047;DHT22;9148;51.454;13.862;2022-08-01T09:55:39;26.20;80.00
18047;DHT22;9148;51.454;13.862;2022-08-01T09:58:05;26.20;80.00
18047;DHT22;9148;51.454;13.862;2022-08-01T10:00:32;26.20;80.30
18047;DHT22;9148;51.454;13.862;2022-08-01T10:03:17;26.20;80.30
18047;DHT22;9148;51.454;13.862;2022-08-01T10:05:48;26.40;80.10
18047;DHT22;9148;51.454;13.862;2022-08-01T10:08:14;26.50;79.60
18047;DHT22;9148;51.454;13.862;2022-08-01T10:10:40;26.60;79.00
18047;DHT22;9148;51.454;13.862;2022-08-01T10:13:08;26.60;78.30
18047;DHT22;9148;51.454;13.862;2022-08-01T10:15:34;26.60;78.30
18047;DHT22;9148;51.454;13.862;2022-08-01T10:18:07;26.60;78.40
18047;DHT22;9148;51.454;13.862;2022-08-01T10:20:34;26.40;80.90
18047;DHT22;9148;51.454;13.862;2022-08-01T10:23:02;26.00;81.30
18047;DHT22;9148;51.454;13.862;2022-08-01T10:25:34;25.70;83.60
18047;DHT22;9148;51.454;13.862;2022-08-01T10:28:08;25.20;88.70
18047;DHT22;9148;51.454;13.862;2022-08-01T10:30:42;24.60;90.60
18047;DHT22;9148;51.454;13.862;2022-08-01T10:33:08;24.10;91.70
18047;DHT22;9148;51.454;13.862;2022-08-01T10:35:34;23.70;93.50
18047;DHT22;9148;51.454;13.862;2022-08-01T10:38:00;23.30;94.60
18047;DHT22;9148;51.454;13.862;2022-08-01T10:40:26;23.00;96.50
18047;DHT22;9148;51.454;13.862;2022-08-01T10:42:53;22.80;98.00
18047;DHT22;9148;51.454;13.862;2022-08-01T10:45:19;22.80;99.00
18047;DHT22;9148;51.454;13.862;2022-08-01T10:48:06;22.90;99.70
18047;DHT22;9148;51.454;13.862;2022-08-01T10:58:22;24.00;97.80
18047;DHT22;9148;51.454;13.862;2022-08-01T11:00:47;24.10;96.90
18047;DHT22;9148;51.454;13.862;2022-08-01T11:03:13;24.30;96.40
18047;DHT22;9148;51.454;13.862;2022-08-01T11:05:42;24.60;96.10
18047;DHT22;9148;51.454;13.862;2022-08-01T11:08:22;25.00;95.50
18047;DHT22;9148;51.454;13.862;2022-08-01T11:10:48;25.60;94.80
18047;DHT22;9148;51.454;13.862;2022-08-01T11:13:14;26.00;93.10
18047;DHT22;9148;51.454;13.862;2022-08-01T11:15:41;26.50;91.70
18047;DHT22;9148;51.454;13.862;2022-08-01T11:20:59;27.30;87.30
18047;DHT22;9148;51.454;13.862;2022-08-01T11:23:27;27.70;85.00
18047;DHT22;9148;51.454;13.862;2022-08-01T11:28:27;28.10;78.80
18047;DHT22;9148;51.454;13.862;2022-08-01T11:41:14;28.50;74.50
18047;DHT22;9148;51.454;13.862;2022-08-01T11:46:47;28.90;72.40
18047;DHT22;9148;51.454;13.862;2022-08-01T11:52:07;29.60;69.10
18047;DHT22;9148;51.454;13.862;2022-08-01T11:54:52;29.90;67.70
18047;DHT22;9148;51.454;13.862;2022-08-01T11:57:19;30.10;66.30
18047;DHT22;9148;51.454;13.862;2022-08-01T11:59:54;30.40;66.30
18047;DHT22;9148;51.454;13.862;2022-08-01T12:02:26;30.70;63.90
18047;DHT22;9148;51.454;13.862;2022-08-01T12:04:56;30.80;62.10
18047;DHT22;9148;51.454;13.862;2022-08-01T12:07:24;31.00;61.20
18047;DHT22;9148;51.454;13.862;2022-08-01T12:10:13;31.10;60.50
18047;DHT22;9148;51.454;13.862;2022-08-01T12:12:48;31.30;59.20
18047;DHT22;9148;51.454;13.862;2022-08-01T12:15:16;31.40;59.30
18047;DHT22;9148;51.454;13.862;2022-08-01T12:17:45;31.60;58.10
18047;DHT22;9148;51.454;13.862;2022-08-01T12:20:35;31.60;57.30
18047;DHT22;9148;51.454;13.862;2022-08-01T12:23:11;31.60;57.40
18047;DHT22;9148;51.454;13.862;2022-08-01T12:25:40;31.50;57.50
18047;DHT22;9148;51.454;13.862;2022-08-01T12:28:09;31.40;57.50
18047;DHT22;9148;51.454;13.862;2022-08-01T12:30:38;31.30;57.40
18047;DHT22;9148;51.454;13.862;2022-08-01T12:33:08;31.20;57.50
18047;DHT22;9148;51.454;13.862;2022-08-01T12:35:36;30.90;57.60
18047;DHT22;9148;51.454;13.862;2022-08-01T12:38:07;30.60;57.90
18047;DHT22;9148;51.454;13.862;2022-08-01T12:40:42;30.60;58.10
18047;DHT22;9148;51.454;13.862;2022-08-01T12:43:09;30.90;57.20
18047;DHT22;9148;51.454;13.862;2022-08-01T12:45:45;31.10;56.70
18047;DHT22;9148;51.454;13.862;2022-08-01T12:48:14;31.10;56.40
18047;DHT22;9148;51.454;13.862;2022-08-01T12:50:43;31.00;56.30
18047;DHT22;9148;51.454;13.862;2022-08-01T12:53:10;30.80;56.50
18047;DHT22;9148;51.454;13.862;2022-08-01T12:55:47;30.50;57.10
18047;DHT22;9148;51.454;13.862;2022-08-01T12:58:15;30.20;57.50
18047;DHT22;9148;51.454;13.862;2022-08-01T13:00:44;29.90;57.80
18047;DHT22;9148;51.454;13.862;2022-08-01T13:03:16;29.60;57.80
18047;DHT22;9148;51.454;13.862;2022-08-01T13:05:48;29.40;58.20
18047;DHT22;9148;51.454;13.862;2022-08-01T13:08:18;29.10;58.40
18047;DHT22;9148;51.454;13.862;2022-08-01T13:10:47;28.80;58.80
18047;DHT22;9148;51.454;13.862;2022-08-01T13:13:15;28.60;59.30
18047;DHT22;9148;51.454;13.862;2022-08-01T13:15:43;28.50;59.80
18047;DHT22;9148;51.454;13.862;2022-08-01T13:18:27;28.20;60.40
18047;DHT22;9148;51.454;13.862;2022-08-01T13:24:27;27.70;61.70
18047;DHT22;9148;51.454;13.862;2022-08-01T13:26:56;27.60;62.30
18047;DHT22;9148;51.454;13.862;2022-08-01T13:29:38;27.60;62.20
18047;DHT22;9148;51.454;13.862;2022-08-01T13:32:14;27.50;62.00
18047;DHT22;9148;51.454;13.862;2022-08-01T13:34:41;27.40;62.40
18047;DHT22;9148;51.454;13.862;2022-08-01T13:37:07;27.40;62.70
18047;DHT22;9148;51.454;13.862;2022-08-01T13:39:33;27.40;62.90
18047;DHT22;9148;51.454;13.862;2022-08-01T13:42:12;27.40;62.80
18047;DHT22;9148;51.454;13.862;2022-08-01T13:44:40;27.40;62.50
18047;DHT22;9148;51.454;13.862;2022-08-01T13:47:06;27.40;62.40
18047;DHT22;9148;51.454;13.862;2022-08-01T13:49:33;27.50;61.70
18047;DHT22;9148;51.454;13.862;2022-08-01T13:52:00;27.70;61.60
18047;DHT22;9148;51.454;13.862;2022-08-01T13:54:26;28.10;61.30
18047;DHT22;9148;51.454;13.862;2022-08-01T13:56:53;28.40;60.10
18047;DHT22;9148;51.454;13.862;2022-08-01T13:59:19;28.60;59.70
18047;DHT22;9148;51.454;13.862;2022-08-01T14:01:45;29.00;59.30
18047;DHT22;9148;51.454;13.862;2022-08-01T14:04:11;29.40;58.90
18047;DHT22;9148;51.454;13.862;2022-08-01T14:06:37;29.60;57.80
18047;DHT22;9148;51.454;13.862;2022-08-01T14:09:04;29.90;57.10
18047;DHT22;9148;51.454;13.862;2022-08-01T14:11:30;30.00;56.60
18047;DHT22;9148;51.454;13.862;2022-08-01T14:13:56;30.10;56.30
18047;DHT22;9148;51.454;13.862;2022-08-01T14:16:22;30.30;56.10
18047;DHT22;9148;51.454;13.862;2022-08-01T14:18:48;30.40;55.50
18047;DHT22;9148;51.454;13.862;2022-08-01T14:21:14;30.30;54.90
18047;DHT22;9148;51.454;13.862;2022-08-01T14:23:40;30.20;54.80
18047;DHT22;9148;51.454;13.862;2022-08-01T14:26:08;30.10;55.10
18047;DHT22;9148;51.454;13.862;2022-08-01T14:28:35;29.90;55.30
18047;DHT22;9148;51.454;13.862;2022-08-01T14:31:01;29.70;55.90
18047;DHT22;9148;51.454;13.862;2022-08-01T14:33:27;29.40;56.50
18047;DHT22;9148;51.454;13.862;2022-08-01T14:35:54;29.20;57.10
18047;DHT22;9148;51.454;13.862;2022-08-01T14:38:20;29.20;57.50
18047;DHT22;9148;51.454;13.862;2022-08-01T14:40:46;29.30;57.20
18047;DHT22;9148;51.454;13.862;2022-08-01T14:43:17;29.40;56.80
18047;DHT22;9148;51.454;13.862;2022-08-01T14:45:43;29.30;56.60
18047;DHT22;9148;51.454;13.862;2022-08-01T14:48:09;29.30;56.00
18047;DHT22;9148;51.454;13.862;2022-08-01T14:50:36;29.30;55.40
18047;DHT22;9148;51.454;13.862;2022-08-01T14:53:02;29.30;55.50
18047;DHT22;9148;51.454;13.862;2022-08-01T14:55:27;29.30;55.20
18047;DHT22;9148;51.454;13.862;2022-08-01T14:57:53;29.20;55.30
18047;DHT22;9148;51.454;13.862;2022-08-01T15:00:19;29.20;55.60
18047;DHT22;9148;51.454;13.862;2022-08-01T15:02:45;29.10;55.80
18047;DHT22;9148;51.454;13.862;2022-08-01T15:05:11;29.00;56.00
18047;DHT22;9148;51.454;13.862;2022-08-01T15:07:37;28.80;56.00
18047;DHT22;9148;51.454;13.862;2022-08-01T15:10:04;28.70;56.30
18047;DHT22;9148;51.454;13.862;2022-08-01T15:12:31;28.70;56.40
18047;DHT22;9148;51.454;13.862;2022-08-01T15:14:57;28.70;56.40
18047;DHT22;9148;51.454;13.862;2022-08-01T15:17:28;28.70;56.40
18047;DHT22;9148;51.454;13.862;2022-08-01T15:19:56;28.70;56.40
18047;DHT22;9148;51.454;13.862;2022-08-01T15:22:23;28.80;55.70
18047;DHT22;9148;51.454;13.862;2022-08-01T15:24:51;28.80;55.00
18047;DHT22;9148;51.454;13.862;2022-08-01T15:27:17;28.70;55.20
18047;DHT22;9148;51.454;13.862;2022-08-01T15:29:43;28.70;55.30
18047;DHT22;9148;51.454;13.862;2022-08-01T15:32:09;28.70;55.50
18047;DHT22;9148;51.454;13.862;2022-08-01T15:34:35;28.70;55.40
18047;DHT22;9148;51.454;13.862;2022-08-01T15:37:02;28.80;55.30
18047;DHT22;9148;51.454;13.862;2022-08-01T15:39:29;28.80;54.90
18047;DHT22;9148;51.454;13.862;2022-08-01T15:41:58;28.80;54.90
18047;DHT22;9148;51.454;13.862;2022-08-01T15:44:24;28.70;54.70
18047;DHT22;9148;51.454;13.862;2022-08-01T15:46:50;28.60;54.60
18047;DHT22;9148;51.454;13.862;2022-08-01T15:49:16;28.60;54.70
18047;DHT22;9148;51.454;13.862;2022-08-01T15:51:43;28.60;54.50
18047;DHT22;9148;51.454;13.862;2022-08-01T15:54:09;28.60;54.20
18047;DHT22;9148;51.454;13.862;2022-08-01T15:56:36;28.60;54.40
18047;DHT22;9148;51.454;13.862;2022-08-01T15:59:02;28.70;54.30
18047;DHT22;9148;51.454;13.862;2022-08-01T16:01:28;28.70;54.10
18047;DHT22;9148;51.454;13.862;2022-08-01T16:03:55;28.70;53.90
18047;DHT22;9148;51.454;13.862;2022-08-01T16:06:22;28.70;53.50
18047;DHT22;9148;51.454;13.862;2022-08-01T16:08:48;28.60;53.40
18047;DHT22;9148;51.454;13.862;2022-08-01T16:11:14;28.50;53.40
18047;DHT22;9148;51.454;13.862;2022-08-01T16:13:40;28.50;53.50
18047;DHT22;9148;51.454;13.862;2022-08-01T16:16:10;28.50;53.70
18047;DHT22;9148;51.454;13.862;2022-08-01T16:18:37;28.50;53.80
18047;DHT22;9148;51.454;13.862;2022-08-01T16:21:03;28.40;53.70
18047;DHT22;9148;51.454;13.862;2022-08-01T16:23:30;28.30;53.90